Exeter, New Hampshire
Current Conditions -  °F | °C
As of 2:58 AM on Friday 31 Oct 2014 (Local Time) from KPSM Reporting Station
Overcast Overcast  
Wind Chill: 36°   Ceiling: 5500
Heat Index: 40°   Visibility: 10mi
Dew Point: 36°   Wind: 6mph
Humidity: 84%   Direction: 330°NNW
Pressure: 30.01"   Gusts: NA
Location:  42.98°N, 70.95°W
Report Text: KPSM 310658Z 33005KT 10SM OVC055 05/02 A3001 RMK AO2A SLP166 T00450020
Loading
Personal Weather Stations






























Interactive Weather Map New forecast layout! Learn more

10-Day Weather Forecast

Advertisements
Track Severe Weather on mobile